ADDS METAR Data INFO
IDs: Format: Raw Decoded Include TAF

Data at: 0815 UTC 18 Nov 2017

KNQX 180753Z AUTO 05008KT 10SM CLR 22/19 A2998 RMK AO2 SLP150 T02220189 $